Terminal Aerodrome Forecast
Issued by NWS

Home | Current Version | Previous Version | Text Only | Print | Product List | Glossary On
Versions: 1 2 3 4 5 6 7 8 9 10 11 12 13 14 15 16 17
098
FTUS44 KLUB 291504 AAA
TAFCDS
TAF AMD
KCDS 291504Z 2915/3012 35020KT P6SM -DZ OVC010
     FM292200 33022G32KT P6SM -SHRA OVC035=

USA.gov is the U.S. government's official web portal to all federal, state and local government web resources and services.